createdAt,value
2019-04-14T00:00:25.634Z,94.219971
2019-04-14T00:01:24.686Z,94.116211
2019-04-14T00:02:25.029Z,94.219971
2019-04-14T00:03:25.896Z,94.32373
2019-04-14T00:04:24.928Z,94.42749
2019-04-14T00:05:25.656Z,94.42749
2019-04-14T00:06:26.540Z,94.32373
2019-04-14T00:07:26.085Z,94.158936
2019-04-14T00:08:26.278Z,93.951416
2019-04-14T00:09:25.251Z,93.951416
2019-04-14T00:10:25.251Z,93.951416
2019-04-14T00:11:25.865Z,93.951416
2019-04-14T00:12:25.420Z,93.951416
2019-04-14T00:13:26.257Z,93.994141
2019-04-14T00:14:27.195Z,94.0979
2019-04-14T00:15:32.833Z,94.20166
2019-04-14T00:16:27.003Z,94.30542
2019-04-14T00:17:26.654Z,94.40918
2019-04-14T00:18:25.734Z,94.512939
2019-04-14T00:19:26.157Z,94.512939
2019-04-14T00:20:27.117Z,94.451904
2019-04-14T00:21:26.113Z,94.555664
2019-04-14T00:22:27.988Z,94.659424
2019-04-14T00:23:26.150Z,94.866943
2019-04-14T00:24:27.048Z,94.976807
2019-04-14T00:25:26.279Z,95.080566
2019-04-14T00:26:27.099Z,95.080566
2019-04-14T00:27:28.121Z,95.080566
2019-04-14T00:28:27.381Z,95.080566
2019-04-14T00:29:26.441Z,95.123291
2019-04-14T00:30:27.286Z,95.123291
2019-04-14T00:31:28.534Z,95.227051
2019-04-14T00:32:27.634Z,95.330811
2019-04-14T00:33:26.688Z,95.43457
2019-04-14T00:34:33.821Z,95.43457
2019-04-14T00:35:27.670Z,95.53833
2019-04-14T00:36:28.319Z,95.53833
2019-04-14T00:37:28.024Z,95.64209
2019-04-14T00:38:28.055Z,95.64209
2019-04-14T00:39:27.315Z,95.64209
2019-04-14T00:40:29.568Z,95.74585
2019-04-14T00:41:36.000Z,95.74585
2019-04-14T00:42:28.216Z,95.849609
2019-04-14T00:43:27.283Z,95.910645
2019-04-14T00:44:27.620Z,96.014404
2019-04-14T00:45:36.903Z,96.014404
2019-04-14T00:46:31.105Z,96.014404
2019-04-14T00:47:27.471Z,96.118164
2019-04-14T00:48:29.743Z,96.118164
2019-04-14T00:49:27.561Z,96.118164
2019-04-14T00:50:27.684Z,96.118164
2019-04-14T00:51:28.709Z,96.118164
2019-04-14T00:52:29.782Z,96.221924
2019-04-14T00:53:27.763Z,96.221924
2019-04-14T00:54:28.234Z,96.221924
2019-04-14T00:55:29.247Z,96.179199
2019-04-14T00:56:28.051Z,96.282959
2019-04-14T00:57:29.122Z,96.179199
2019-04-14T00:58:28.233Z,96.179199
2019-04-14T00:59:29.009Z,96.179199
2019-04-14T01:00:29.724Z,96.179199
2019-04-14T01:01:30.734Z,96.179199
2019-04-14T01:02:29.685Z,96.179199
2019-04-14T01:03:28.780Z,96.179199
2019-04-14T01:04:29.442Z,96.179199
2019-04-14T01:05:32.593Z,96.179199
2019-04-14T01:06:29.857Z,96.179199
2019-04-14T01:07:28.915Z,96.179199
2019-04-14T01:08:29.279Z,96.179199
2019-04-14T01:09:29.076Z,96.075439
2019-04-14T01:10:30.005Z,95.97168
2019-04-14T01:11:29.295Z,95.97168
2019-04-14T01:12:29.962Z,95.97168
2019-04-14T01:13:31.082Z,95.97168
2019-04-14T01:14:30.497Z,95.97168
2019-04-14T01:15:29.570Z,95.86792
2019-04-14T01:16:31.825Z,95.86792
2019-04-14T01:17:30.801Z,95.928955
2019-04-14T01:18:29.904Z,95.928955
2019-04-14T01:19:30.889Z,95.825195
2019-04-14T01:20:29.866Z,95.825195
2019-04-14T01:21:30.704Z,95.721436
2019-04-14T01:22:31.360Z,95.721436
2019-04-14T01:23:30.484Z,95.617676
2019-04-14T01:24:31.431Z,95.617676
2019-04-14T01:25:30.335Z,95.617676
2019-04-14T01:26:31.021Z,95.617676
2019-04-14T01:27:31.985Z,95.617676
2019-04-14T01:28:31.495Z,95.617676
2019-04-14T01:29:31.846Z,95.513916
2019-04-14T01:30:30.674Z,95.513916
2019-04-14T01:31:31.666Z,95.404053
2019-04-14T01:32:32.602Z,95.404053
2019-04-14T01:33:31.569Z,95.404053
2019-04-14T01:34:32.406Z,95.300293
2019-04-14T01:35:31.855Z,95.300293
2019-04-14T01:36:31.949Z,95.196533
2019-04-14T01:37:31.201Z,95.300293
2019-04-14T01:38:31.911Z,95.300293
2019-04-14T01:39:32.860Z,95.196533
2019-04-14T01:40:32.124Z,95.196533
2019-04-14T01:41:32.416Z,95.092773
2019-04-14T01:42:31.303Z,94.989014
2019-04-14T01:43:32.097Z,94.885254
2019-04-14T01:44:33.010Z,94.989014
2019-04-14T01:45:32.487Z,94.989014
2019-04-14T01:46:33.112Z,94.989014
2019-04-14T01:47:31.659Z,94.885254
2019-04-14T01:48:32.431Z,94.885254
2019-04-14T01:49:33.264Z,94.885254
2019-04-14T01:50:32.814Z,94.781494
2019-04-14T01:51:33.051Z,94.470215
2019-04-14T01:52:32.069Z,94.366455
2019-04-14T01:53:33.599Z,94.366455
2019-04-14T01:54:33.113Z,94.470215
2019-04-14T01:55:33.092Z,94.573975
2019-04-14T01:56:32.236Z,94.470215
2019-04-14T01:57:32.861Z,94.470215
2019-04-14T01:58:33.890Z,94.366455
2019-04-14T01:59:32.676Z,94.262695
2019-04-14T02:00:33.662Z,94.262695
2019-04-14T02:01:32.654Z,94.262695
2019-04-14T02:02:33.725Z,94.262695
2019-04-14T02:03:32.797Z,94.158936
2019-04-14T02:04:33.387Z,94.0979
2019-04-14T02:05:34.281Z,94.0979
2019-04-14T02:06:33.974Z,94.20166
2019-04-14T02:07:34.040Z,94.20166
2019-04-14T02:08:33.157Z,94.20166
2019-04-14T02:09:33.572Z,94.0979
2019-04-14T02:10:34.721Z,94.140625
2019-04-14T02:11:33.477Z,94.036865
2019-04-14T02:12:34.451Z,94.140625
2019-04-14T02:13:35.412Z,94.244385
2019-04-14T02:14:34.511Z,94.244385
2019-04-14T02:15:33.539Z,94.390869
2019-04-14T02:16:40.071Z,94.390869
2019-04-14T02:17:35.018Z,94.598389
2019-04-14T02:18:34.090Z,94.702148
2019-04-14T02:19:34.920Z,94.702148
2019-04-14T02:20:33.993Z,94.805908
2019-04-14T02:21:34.537Z,94.805908
2019-04-14T02:22:35.573Z,94.915771
2019-04-14T02:23:34.423Z,94.915771
2019-04-14T02:24:35.174Z,94.915771
2019-04-14T02:25:36.016Z,94.915771
2019-04-14T02:26:35.120Z,94.915771
2019-04-14T02:27:36.024Z,94.958496
2019-04-14T02:28:35.400Z,94.958496
2019-04-14T02:29:34.457Z,95.062256
2019-04-14T02:30:41.348Z,95.062256
2019-04-14T02:31:52.395Z,95.166016
2019-04-14T02:33:03.141Z,95.166016
2019-04-14T02:33:57.914Z,95.269775
2019-04-14T02:35:01.574Z,95.269775
2019-04-14T02:36:05.408Z,95.269775
2019-04-14T02:37:04.289Z,95.269775
2019-04-14T02:38:11.719Z,95.269775
2019-04-14T02:40:00.244Z,95.269775
2019-04-14T02:41:02.172Z,95.3125
2019-04-14T02:43:02.479Z,95.3125
2019-04-14T02:44:03.943Z,95.3125
2019-04-14T02:44:59.645Z,95.3125
2019-04-14T02:47:03.184Z,95.41626
2019-04-14T02:48:25.209Z,95.41626
2019-04-14T02:49:01.957Z,95.52002
2019-04-14T02:51:03.999Z,95.52002
2019-04-14T02:52:03.889Z,95.52002
2019-04-14T02:53:07.220Z,95.623779
2019-04-14T02:55:02.726Z,95.666504
2019-04-14T02:56:07.390Z,95.776367
2019-04-14T02:57:01.048Z,95.776367
2019-04-14T02:58:00.925Z,95.666504
2019-04-14T02:59:03.382Z,95.666504
2019-04-14T03:00:07.484Z,95.666504
2019-04-14T03:01:06.693Z,95.666504
2019-04-14T03:02:13.899Z,95.666504
2019-04-14T03:02:56.005Z,95.776367
2019-04-14T03:03:55.769Z,95.776367
2019-04-14T03:06:05.072Z,95.880127
2019-04-14T03:07:04.515Z,95.880127
2019-04-14T03:07:59.544Z,95.880127
2019-04-14T03:10:17.691Z,95.880127
2019-04-14T03:11:00.841Z,95.880127
2019-04-14T03:12:00.313Z,95.922852
2019-04-14T03:13:05.349Z,95.922852
2019-04-14T03:15:00.612Z,96.026611
2019-04-14T03:16:01.396Z,96.026611
2019-04-14T03:17:13.452Z,96.026611
2019-04-14T03:18:57.458Z,96.026611
2019-04-14T03:21:03.257Z,96.130371
2019-04-14T03:22:12.131Z,96.130371
2019-04-14T03:23:04.735Z,96.130371
2019-04-14T03:24:02.969Z,96.234131
2019-04-14T03:24:50.129Z,96.234131
2019-04-14T03:25:56.742Z,96.234131
2019-04-14T03:27:22.113Z,96.234131
2019-04-14T03:27:58.213Z,96.337891
2019-04-14T03:28:56.066Z,96.44165
2019-04-14T03:31:24.248Z,96.44165
2019-04-14T03:34:20.784Z,96.54541
2019-04-14T03:35:19.326Z,96.54541
2019-04-14T03:37:28.750Z,96.54541
2019-04-14T03:39:05.577Z,96.697998
2019-04-14T03:39:56.920Z,96.759033
2019-04-14T03:41:08.329Z,96.862793
2019-04-14T03:42:08.290Z,96.862793
2019-04-14T03:44:00.947Z,97.070312
2019-04-14T03:45:03.381Z,97.070312
2019-04-14T03:46:08.988Z,97.070312
2019-04-14T03:47:05.062Z,97.174072
2019-04-14T03:48:33.567Z,97.174072
2019-04-14T03:49:05.763Z,97.174072
2019-04-14T03:51:08.080Z,97.070312
2019-04-14T03:53:57.409Z,96.966553
2019-04-14T03:54:56.268Z,97.009277
2019-04-14T03:55:45.154Z,97.009277
2019-04-14T03:56:38.029Z,97.009277
2019-04-14T03:57:37.087Z,97.009277
2019-04-14T03:58:37.869Z,97.009277
2019-04-14T03:59:39.193Z,97.009277
2019-04-14T04:00:38.264Z,97.009277
2019-04-14T04:01:37.333Z,97.009277
2019-04-14T04:02:37.997Z,97.113037
2019-04-14T04:03:37.439Z,97.113037
2019-04-14T04:04:38.513Z,97.113037
2019-04-14T04:05:37.623Z,97.113037
2019-04-14T04:06:37.868Z,97.113037
2019-04-14T04:07:38.813Z,97.113037
2019-04-14T04:08:37.815Z,97.113037
2019-04-14T04:09:38.874Z,97.113037
2019-04-14T04:10:37.940Z,97.113037
2019-04-14T04:11:39.011Z,97.113037
2019-04-14T04:12:39.963Z,97.113037
2019-04-14T04:13:38.977Z,97.113037
2019-04-14T04:14:38.108Z,97.113037
2019-04-14T04:15:38.863Z,97.113037
2019-04-14T04:16:39.744Z,97.216797
2019-04-14T04:17:39.413Z,97.216797
2019-04-14T04:18:47.193Z,97.216797
2019-04-14T04:19:40.490Z,97.216797
2019-04-14T04:20:39.114Z,97.216797
2019-04-14T04:21:40.125Z,97.320557
2019-04-14T04:22:39.000Z,97.320557
2019-04-14T04:23:38.813Z,97.320557
2019-04-14T04:24:39.111Z,97.320557
2019-04-14T04:25:39.947Z,97.320557
2019-04-14T04:26:39.025Z,97.320557
2019-04-14T04:27:39.702Z,97.320557
2019-04-14T04:28:39.167Z,97.473145
2019-04-14T04:29:39.782Z,97.43042
2019-04-14T04:30:40.212Z,97.473145
2019-04-14T04:31:39.607Z,97.473145
2019-04-14T04:32:40.441Z,97.473145
2019-04-14T04:33:39.464Z,97.576904
2019-04-14T04:34:40.219Z,97.576904
2019-04-14T04:35:41.442Z,97.576904
2019-04-14T04:36:40.627Z,97.680664
2019-04-14T04:37:41.160Z,97.680664
2019-04-14T04:38:39.888Z,97.680664
2019-04-14T04:39:41.169Z,97.680664
2019-04-14T04:40:39.890Z,97.680664
2019-04-14T04:41:40.703Z,97.680664
2019-04-14T04:42:41.606Z,97.784424
2019-04-14T04:43:40.985Z,97.680664
2019-04-14T04:44:40.013Z,97.680664
2019-04-14T04:45:40.873Z,97.680664
2019-04-14T04:46:41.569Z,97.680664
2019-04-14T04:47:41.179Z,97.680664
2019-04-14T04:48:41.419Z,97.680664
2019-04-14T04:49:42.476Z,97.680664
2019-04-14T04:50:41.007Z,97.680664
2019-04-14T04:51:42.134Z,97.680664
2019-04-14T04:52:41.558Z,97.680664
2019-04-14T04:53:40.575Z,97.680664
2019-04-14T04:54:40.731Z,97.680664
2019-04-14T04:55:41.692Z,97.680664
2019-04-14T04:56:40.589Z,97.680664
2019-04-14T04:57:41.580Z,97.680664
2019-04-14T04:58:41.322Z,97.576904
2019-04-14T04:59:40.914Z,97.680664
2019-04-14T05:00:41.665Z,97.680664
2019-04-14T05:01:42.905Z,97.576904
2019-04-14T05:02:41.772Z,97.680664
2019-04-14T05:03:42.795Z,97.680664
2019-04-14T05:04:42.033Z,97.680664
2019-04-14T05:05:41.040Z,97.680664
2019-04-14T05:06:41.606Z,97.680664
2019-04-14T05:07:42.628Z,97.680664
2019-04-14T05:08:41.335Z,97.680664
2019-04-14T05:09:41.127Z,97.680664
2019-04-14T05:10:41.406Z,97.680664
2019-04-14T05:11:41.146Z,97.680664
2019-04-14T05:12:43.409Z,97.680664
2019-04-14T05:13:42.420Z,97.680664
2019-04-14T05:14:41.391Z,97.680664
2019-04-14T05:15:42.371Z,97.784424
2019-04-14T05:16:43.720Z,97.784424
2019-04-14T05:17:43.001Z,97.784424
2019-04-14T05:18:41.955Z,97.784424
2019-04-14T05:19:42.374Z,97.784424
2019-04-14T05:20:42.046Z,97.784424
2019-04-14T05:21:43.118Z,97.888184
2019-04-14T05:22:42.006Z,97.888184
2019-04-14T05:23:43.054Z,97.888184
2019-04-14T05:24:42.197Z,97.845459
2019-04-14T05:25:43.013Z,97.845459
2019-04-14T05:26:43.784Z,97.845459
2019-04-14T05:27:43.463Z,97.845459
2019-04-14T05:28:42.451Z,97.845459
2019-04-14T05:29:43.005Z,97.845459
2019-04-14T05:30:43.526Z,97.845459
2019-04-14T05:31:42.615Z,97.845459
2019-04-14T05:32:43.420Z,97.741699
2019-04-14T05:33:42.627Z,97.741699
2019-04-14T05:34:43.323Z,97.637939
2019-04-14T05:35:44.493Z,97.637939
2019-04-14T05:36:43.789Z,97.637939
2019-04-14T05:37:42.810Z,97.637939
2019-04-14T05:38:42.897Z,97.637939
2019-04-14T05:39:43.932Z,97.637939
2019-04-14T05:40:42.970Z,97.485352
2019-04-14T05:41:54.908Z,97.485352
2019-04-14T05:42:45.001Z,97.485352
2019-04-14T05:43:48.623Z,97.381592
2019-04-14T05:44:44.767Z,97.381592
2019-04-14T05:45:44.264Z,97.381592
2019-04-14T05:46:43.254Z,97.381592
2019-04-14T05:47:43.660Z,97.381592
2019-04-14T05:48:44.430Z,97.381592
2019-04-14T05:49:48.146Z,97.277832
2019-04-14T05:50:44.619Z,97.277832
2019-04-14T05:51:43.761Z,97.277832
2019-04-14T05:52:44.627Z,97.277832
2019-04-14T05:53:43.927Z,97.277832
2019-04-14T05:54:44.695Z,97.277832
2019-04-14T05:55:43.900Z,97.235107
2019-04-14T05:56:44.711Z,97.131348
2019-04-14T05:57:44.063Z,97.131348
2019-04-14T05:58:44.729Z,97.131348
2019-04-14T05:59:46.095Z,97.131348
2019-04-14T06:00:44.244Z,97.027588
2019-04-14T06:01:46.466Z,97.027588
2019-04-14T06:02:46.224Z,97.027588
2019-04-14T06:03:45.374Z,97.027588
2019-04-14T06:04:46.087Z,96.923828
2019-04-14T06:05:45.743Z,96.923828
2019-04-14T06:06:44.725Z,96.923828
2019-04-14T06:07:44.770Z,96.77124
2019-04-14T06:08:44.786Z,96.77124
2019-04-14T06:09:44.905Z,96.77124
2019-04-14T06:10:45.475Z,96.66748
2019-04-14T06:11:45.038Z,96.66748
2019-04-14T06:12:45.088Z,96.563721
2019-04-14T06:13:45.092Z,96.459961
2019-04-14T06:14:45.095Z,96.459961
2019-04-14T06:15:45.150Z,96.459961
2019-04-14T06:16:45.159Z,96.356201
2019-04-14T06:17:46.325Z,96.356201
2019-04-14T06:18:45.347Z,96.313477
2019-04-14T06:19:45.373Z,96.209717
2019-04-14T06:20:45.415Z,96.209717
2019-04-14T06:21:45.454Z,96.209717
2019-04-14T06:22:45.451Z,96.105957
2019-04-14T06:23:45.449Z,95.996094
2019-04-14T06:24:45.484Z,95.996094
2019-04-14T06:25:45.579Z,95.996094
2019-04-14T06:26:45.608Z,95.788574
2019-04-14T06:27:45.612Z,95.581055
2019-04-14T06:28:45.615Z,95.477295
2019-04-14T06:29:45.628Z,95.43457
2019-04-14T06:30:45.635Z,95.330811
2019-04-14T06:31:45.674Z,95.123291
2019-04-14T06:32:45.733Z,95.123291
2019-04-14T06:33:45.726Z,95.123291
2019-04-14T06:34:45.748Z,95.019531
2019-04-14T06:35:45.753Z,94.915771
2019-04-14T06:36:45.799Z,94.805908
2019-04-14T06:37:45.819Z,94.598389
2019-04-14T06:38:45.859Z,94.390869
2019-04-14T06:39:45.895Z,94.244385
2019-04-14T06:40:45.911Z,94.348145
2019-04-14T06:41:45.937Z,94.244385
2019-04-14T06:42:45.956Z,94.244385
2019-04-14T06:43:48.847Z,94.140625
2019-04-14T06:44:46.129Z,93.933105
2019-04-14T06:45:46.123Z,93.829346
2019-04-14T06:46:46.152Z,93.890381
2019-04-14T06:47:46.155Z,93.890381
2019-04-14T06:48:46.162Z,93.786621
2019-04-14T06:49:49.015Z,93.579102
2019-04-14T06:50:46.487Z,93.579102
2019-04-14T06:51:46.186Z,93.371582
2019-04-14T06:52:46.180Z,93.157959
2019-04-14T06:53:46.194Z,93.157959
2019-04-14T06:54:46.204Z,92.950439
2019-04-14T06:55:46.284Z,93.011475
2019-04-14T06:56:46.269Z,93.011475
2019-04-14T06:57:46.293Z,92.907715
2019-04-14T06:58:46.288Z,92.907715
2019-04-14T06:59:46.313Z,92.86499
2019-04-14T07:00:46.327Z,92.553711
2019-04-14T07:01:46.392Z,92.138672
2019-04-14T07:02:48.005Z,91.516113
2019-04-14T07:03:46.383Z,91.204834
2019-04-14T07:04:46.398Z,91.101074
2019-04-14T07:05:46.423Z,91.412354
2019-04-14T07:06:46.495Z,91.308594
2019-04-14T07:07:56.354Z,90.686035
2019-04-14T07:08:46.623Z,90.789795
2019-04-14T07:09:46.626Z,90.686035
2019-04-14T07:10:46.689Z,90.74707
2019-04-14T07:11:46.719Z,90.539551
2019-04-14T07:12:46.773Z,90.435791
2019-04-14T07:13:48.156Z,90.124512
2019-04-14T07:14:46.782Z,89.49585
2019-04-14T07:15:46.786Z,89.599609
2019-04-14T07:16:46.838Z,89.18457
2019-04-14T07:17:46.864Z,89.080811
2019-04-14T07:18:46.880Z,88.769531
2019-04-14T07:19:46.881Z,88.562012
2019-04-14T07:20:48.011Z,88.623047
2019-04-14T07:21:47.327Z,88.94043
2019-04-14T07:22:47.056Z,88.519287
2019-04-14T07:23:47.295Z,88.104248
2019-04-14T07:24:47.084Z,88.415527
2019-04-14T07:25:47.092Z,88.586426
2019-04-14T07:26:47.122Z,88.378906
2019-04-14T07:27:47.162Z,87.921143
2019-04-14T07:28:56.391Z,87.506104
2019-04-14T07:29:47.341Z,87.194824
2019-04-14T07:30:47.341Z,87.713623
2019-04-14T07:31:47.355Z,87.817383
2019-04-14T07:32:47.399Z,87.677002
2019-04-14T07:33:47.428Z,86.431885
2019-04-14T07:34:47.460Z,86.639404
2019-04-14T07:35:47.466Z,86.846924
2019-04-14T07:36:47.552Z,86.846924
2019-04-14T07:37:47.620Z,86.535645
2019-04-14T07:38:47.666Z,86.950684
2019-04-14T07:39:47.665Z,87.115479
2019-04-14T07:40:47.675Z,87.115479
2019-04-14T07:41:47.818Z,86.804199
2019-04-14T07:42:47.856Z,86.38916
2019-04-14T07:43:47.913Z,85.9375
2019-04-14T07:44:47.929Z,85.83374
2019-04-14T07:45:47.959Z,85.418701
2019-04-14T07:46:47.968Z,85.314941
2019-04-14T07:47:47.996Z,85.479736
2019-04-14T07:48:47.988Z,84.234619
2019-04-14T07:49:48.022Z,83.825684
2019-04-14T07:50:48.045Z,83.203125
2019-04-14T07:51:48.095Z,83.099365
2019-04-14T07:52:48.158Z,83.203125
2019-04-14T07:53:48.169Z,83.26416
2019-04-14T07:54:48.212Z,82.336426
2019-04-14T07:55:48.266Z,83.056641
2019-04-14T07:56:48.423Z,83.056641
2019-04-14T07:57:48.435Z,82.952881
2019-04-14T07:58:48.466Z,83.056641
2019-04-14T07:59:48.536Z,82.8125
2019-04-14T08:00:48.557Z,82.092285
2019-04-14T08:01:48.591Z,81.573486
2019-04-14T08:02:48.613Z,81.091309
2019-04-14T08:03:48.644Z,81.610107
2019-04-14T08:04:48.685Z,81.921387
2019-04-14T08:05:48.691Z,83.435059
2019-04-14T08:06:48.744Z,83.02002
2019-04-14T08:07:48.776Z,82.501221
2019-04-14T08:08:48.838Z,82.672119
2019-04-14T08:09:48.886Z,83.190918
2019-04-14T08:10:48.908Z,81.018066
2019-04-14T08:11:48.945Z,80.950928
2019-04-14T08:12:48.950Z,80.639648
2019-04-14T08:13:49.005Z,81.158447
2019-04-14T08:14:49.063Z,81.225586
2019-04-14T08:15:49.090Z,80.737305
2019-04-14T08:16:49.101Z,80.072021
2019-04-14T08:17:49.114Z,76.794434
2019-04-14T08:18:49.237Z,74.328613
2019-04-14T08:19:49.316Z,72.576904
2019-04-14T08:20:49.351Z,68.920898
2019-04-14T08:21:49.481Z,65.783691
2019-04-14T08:22:49.497Z,63.262939
2019-04-14T08:23:49.695Z,61.877441
2019-04-14T08:24:49.775Z,60.955811
2019-04-14T08:25:49.740Z,60.284424
2019-04-14T08:26:49.765Z,58.874512
2019-04-14T08:27:49.916Z,58.050537
2019-04-14T08:28:49.957Z,54.23584
2019-04-14T08:29:49.958Z,52.050781
2019-04-14T08:30:50.104Z,51.055908
2019-04-14T08:31:50.099Z,52.124023
2019-04-14T08:32:50.236Z,51.898193
2019-04-14T08:33:50.233Z,51.44043
2019-04-14T08:34:50.386Z,51.293945
2019-04-14T08:35:50.564Z,48.126221
2019-04-14T08:36:50.571Z,47.113037
2019-04-14T08:37:50.572Z,47.845459
2019-04-14T08:38:50.624Z,47.766113
2019-04-14T08:39:50.673Z,49.536133
2019-04-14T08:40:50.717Z,48.950195
2019-04-14T08:41:50.695Z,49.786377
2019-04-14T08:42:50.837Z,51.11084
2019-04-14T08:43:50.990Z,51.44043
2019-04-14T08:44:51.036Z,51.538086
2019-04-14T08:45:51.105Z,51.721191
2019-04-14T08:46:51.278Z,51.721191
2019-04-14T08:47:51.281Z,50.195312
2019-04-14T08:48:51.297Z,49.786377
2019-04-14T08:49:51.422Z,50.274658
2019-04-14T08:50:51.428Z,49.743652
2019-04-14T08:51:51.437Z,49.560547
2019-04-14T08:52:51.442Z,49.707031
2019-04-14T08:53:51.457Z,50.091553
2019-04-14T08:54:51.526Z,49.890137
2019-04-14T08:55:51.540Z,50.524902
2019-04-14T08:56:51.644Z,52.679443
2019-04-14T08:57:51.626Z,53.674316
2019-04-14T08:58:52.744Z,55.279541
2019-04-14T08:59:51.949Z,55.841064
2019-04-14T09:00:51.908Z,56.378174
2019-04-14T09:01:51.945Z,56.481934
2019-04-14T09:02:51.984Z,56.35376
2019-04-14T09:03:51.961Z,56.04248
2019-04-14T09:04:51.987Z,56.225586
2019-04-14T09:05:51.979Z,54.870605
2019-04-14T09:06:52.131Z,55.047607
2019-04-14T09:07:52.196Z,53.69873
2019-04-14T09:08:52.183Z,56.066895
2019-04-14T09:09:52.226Z,56.80542
2019-04-14T09:10:52.256Z,56.018066
2019-04-14T09:11:52.282Z,55.914307
2019-04-14T09:12:53.407Z,56.988525
2019-04-14T09:13:52.558Z,57.019043
2019-04-14T09:14:57.050Z,57.196045
2019-04-14T09:15:52.555Z,56.097412
2019-04-14T09:16:52.577Z,55.407715
2019-04-14T09:17:52.568Z,58.166504
2019-04-14T09:18:53.701Z,58.215332
2019-04-14T09:19:53.791Z,56.658936
2019-04-14T09:20:52.941Z,55.047607
2019-04-14T09:21:52.812Z,55.407715
2019-04-14T09:22:52.795Z,54.89502
2019-04-14T09:23:52.792Z,56.732178
2019-04-14T09:24:52.788Z,55.609131
2019-04-14T09:25:52.854Z,53.69873
2019-04-14T09:26:52.885Z,56.04248
2019-04-14T09:27:53.039Z,54.486084
2019-04-14T09:28:53.179Z,53.771973
2019-04-14T09:29:53.173Z,54.437256
2019-04-14T09:30:53.234Z,53.063965
2019-04-14T09:31:53.262Z,50.390625
2019-04-14T09:32:53.298Z,51.281738
2019-04-14T09:33:53.331Z,49.957275
2019-04-14T09:34:53.369Z,52.075195
2019-04-14T09:35:53.442Z,51.361084
2019-04-14T09:36:53.456Z,50.317383
2019-04-14T09:37:53.473Z,50.292969
2019-04-14T09:38:53.477Z,50.091553
2019-04-14T09:39:53.483Z,50.140381
2019-04-14T09:40:53.512Z,50.311279
2019-04-14T09:41:53.549Z,50.463867
2019-04-14T09:42:53.519Z,53.112793
2019-04-14T09:43:53.668Z,52.752686
2019-04-14T09:44:53.808Z,52.368164
2019-04-14T09:45:53.979Z,55.737305
2019-04-14T09:46:54.034Z,54.614258
2019-04-14T09:47:55.013Z,54.309082
2019-04-14T09:48:54.175Z,55.358887
2019-04-14T09:49:54.174Z,53.643799
2019-04-14T09:51:04.100Z,53.747559
2019-04-14T09:51:54.363Z,52.624512
2019-04-14T09:52:54.400Z,55.358887
2019-04-14T09:53:54.399Z,54.333496
2019-04-14T09:54:54.556Z,55.560303
2019-04-14T09:55:54.545Z,55.456543
2019-04-14T09:56:54.575Z,56.530762
2019-04-14T09:57:55.697Z,52.832031
2019-04-14T09:58:54.842Z,54.541016
2019-04-14T09:59:54.866Z,52.148438
2019-04-14T10:00:54.886Z,51.812744
2019-04-14T10:01:55.067Z,51.5625
2019-04-14T10:02:55.185Z,50.421143
2019-04-14T10:03:55.187Z,51.538086
2019-04-14T10:04:55.203Z,48.693848
2019-04-14T10:05:55.209Z,48.492432
2019-04-14T10:06:55.248Z,50.262451
2019-04-14T10:07:55.269Z,50.567627
2019-04-14T10:08:55.249Z,50.854492
2019-04-14T10:09:55.258Z,50.036621
2019-04-14T10:10:55.257Z,52.301025
2019-04-14T10:11:56.469Z,50.592041
2019-04-14T10:12:55.257Z,51.739502
2019-04-14T10:13:55.290Z,51.989746
2019-04-14T10:14:55.339Z,51.556396
2019-04-14T10:15:55.381Z,51.763916
2019-04-14T10:16:55.385Z,54.638672
2019-04-14T10:17:55.693Z,53.442383
2019-04-14T10:18:55.671Z,53.033447
2019-04-14T10:19:55.746Z,53.338623
2019-04-14T10:20:55.857Z,55.255127
2019-04-14T10:21:56.848Z,55.047607
2019-04-14T10:22:55.980Z,52.832031
2019-04-14T10:23:56.017Z,53.546143
2019-04-14T10:24:56.060Z,53.265381
2019-04-14T10:25:56.092Z,54.35791
2019-04-14T10:26:56.101Z,51.739502
2019-04-14T10:27:56.161Z,52.124023
2019-04-14T10:28:56.173Z,52.172852
2019-04-14T10:29:56.259Z,51.23291
2019-04-14T10:30:56.384Z,48.999023
2019-04-14T10:31:56.511Z,50.091553
2019-04-14T10:32:56.470Z,50.701904
2019-04-14T10:33:56.502Z,50.292969
2019-04-14T10:34:57.484Z,50.653076
2019-04-14T10:35:56.631Z,49.334717
2019-04-14T10:36:56.674Z,47.833252
2019-04-14T10:37:56.688Z,48.266602
2019-04-14T10:38:56.783Z,49.42627
2019-04-14T10:39:56.815Z,50.091553
2019-04-14T10:40:56.934Z,48.522949
2019-04-14T10:41:56.942Z,49.694824
2019-04-14T10:42:57.063Z,46.5271
2019-04-14T10:43:57.200Z,50
2019-04-14T10:44:57.200Z,47.814941
2019-04-14T10:45:57.204Z,47.814941
2019-04-14T10:46:57.371Z,46.97876
2019-04-14T10:47:57.512Z,47.686768
2019-04-14T10:48:57.646Z,48.602295
2019-04-14T10:49:57.731Z,49.267578
2019-04-14T10:50:57.851Z,47.644043
2019-04-14T10:51:57.951Z,49.798584
2019-04-14T10:52:57.966Z,46.368408
2019-04-14T10:53:58.086Z,46.472168
2019-04-14T10:54:59.034Z,47.564697
2019-04-14T10:55:58.077Z,47.363281
2019-04-14T10:57:00.840Z,46.673584
2019-04-14T10:57:58.214Z,48.400879
2019-04-14T10:58:58.347Z,46.618652
2019-04-14T10:59:58.290Z,48.895264
2019-04-14T11:00:58.402Z,49.328613
2019-04-14T11:01:58.442Z,50.244141
2019-04-14T11:02:58.425Z,49.481201
2019-04-14T11:03:58.442Z,46.105957
2019-04-14T11:04:58.430Z,45.251465
2019-04-14T11:05:58.506Z,47.644043
2019-04-14T11:06:58.542Z,45.031738
2019-04-14T11:07:58.624Z,47.460938
2019-04-14T11:08:58.747Z,48.254395
2019-04-14T11:09:58.894Z,47.094727
2019-04-14T11:10:58.862Z,42.089844
2019-04-14T11:11:58.896Z,45.831299
2019-04-14T11:12:59.969Z,43.426514
2019-04-14T11:13:59.005Z,45.812988
2019-04-14T11:14:59.064Z,43.182373
2019-04-14T11:15:59.075Z,42.999268
2019-04-14T11:16:59.191Z,42.840576
2019-04-14T11:17:59.219Z,43.182373
2019-04-14T11:18:59.377Z,45.251465
2019-04-14T11:19:59.478Z,47.302246
2019-04-14T11:20:59.499Z,46.533203
2019-04-14T11:21:59.540Z,48.693848
2019-04-14T11:23:03.357Z,47.167969
2019-04-14T11:23:59.678Z,48.138428
2019-04-14T11:24:59.818Z,48.400879
2019-04-14T11:25:59.962Z,47.137451
2019-04-14T11:27:00.034Z,47.747803
2019-04-14T11:28:00.169Z,46.856689
2019-04-14T11:29:00.327Z,47.381592
2019-04-14T11:30:00.372Z,48.443604
2019-04-14T11:31:00.381Z,47.44873
2019-04-14T11:32:00.449Z,47.979736
2019-04-14T11:33:00.594Z,49.121094
2019-04-14T11:34:00.710Z,48.974609
2019-04-14T11:35:00.881Z,49.438477
2019-04-14T11:36:01.028Z,48.962402
2019-04-14T11:37:00.996Z,46.282959
2019-04-14T11:38:01.185Z,46.014404
2019-04-14T11:39:01.228Z,45.788574
2019-04-14T11:40:01.355Z,44.702148
2019-04-14T11:41:01.438Z,43.566895
2019-04-14T11:42:01.578Z,42.779541
2019-04-14T11:43:01.661Z,44.030762
2019-04-14T11:44:01.689Z,44.055176
2019-04-14T11:45:01.755Z,45.373535
2019-04-14T11:46:03.707Z,44.604492
2019-04-14T11:47:01.878Z,44.421387